createdAt,value
2018-03-06T00:00:42.920Z,81.4
2018-03-06T00:01:44.301Z,81.1
2018-03-06T00:02:45.704Z,81.3
2018-03-06T00:03:47.090Z,80.9
2018-03-06T00:04:48.478Z,81.2
2018-03-06T00:05:49.862Z,80.5
2018-03-06T00:06:51.242Z,80.2
2018-03-06T00:07:52.628Z,80.3
2018-03-06T00:08:54.006Z,80.3
2018-03-06T00:09:55.391Z,80.2
2018-03-06T00:10:56.778Z,80.5
2018-03-06T00:11:58.165Z,80.3
2018-03-06T00:12:59.549Z,80.2
2018-03-06T00:14:00.935Z,80.4
2018-03-06T00:15:02.320Z,80.0
2018-03-06T00:16:03.702Z,80.1
2018-03-06T00:17:05.085Z,80.4
2018-03-06T00:18:06.471Z,80.4
2018-03-06T00:19:07.859Z,79.7
2018-03-06T00:20:09.236Z,80.2
2018-03-06T00:21:10.621Z,80.1
2018-03-06T00:22:12.005Z,80.5
2018-03-06T00:23:13.388Z,80.4
2018-03-06T00:24:14.772Z,80.2
2018-03-06T00:25:16.158Z,80.3
2018-03-06T00:26:17.544Z,80.7
2018-03-06T00:27:18.927Z,80.5
2018-03-06T00:28:20.305Z,80.6
2018-03-06T00:29:21.688Z,80.5
2018-03-06T00:30:23.074Z,80.7
2018-03-06T00:31:24.480Z,81.2
2018-03-06T00:32:25.882Z,80.5
2018-03-06T00:33:27.258Z,80.5
2018-03-06T00:34:28.640Z,81.1
2018-03-06T00:35:30.029Z,81.2
2018-03-06T00:36:31.417Z,81.5
2018-03-06T00:37:32.801Z,81.5
2018-03-06T00:38:34.184Z,81.5
2018-03-06T00:39:35.582Z,81.5
2018-03-06T00:40:36.970Z,81.2
2018-03-06T00:41:38.350Z,80.9
2018-03-06T00:42:39.860Z,80.9
2018-03-06T00:43:41.246Z,81.0
2018-03-06T00:44:42.630Z,81.1
2018-03-06T00:45:44.013Z,81.2
2018-03-06T00:46:45.396Z,81.5
2018-03-06T00:47:46.782Z,81.4
2018-03-06T00:48:48.166Z,81.1
2018-03-06T00:49:49.552Z,81.5
2018-03-06T00:50:50.944Z,81.0
2018-03-06T00:51:52.322Z,81.2
2018-03-06T00:52:53.708Z,81.0
2018-03-06T00:53:55.102Z,81.3
2018-03-06T00:54:56.486Z,81.3
2018-03-06T00:55:57.868Z,81.1
2018-03-06T00:56:59.249Z,81.4
2018-03-06T00:58:00.637Z,81.6
2018-03-06T00:59:02.022Z,81.4
2018-03-06T01:00:03.407Z,81.4
2018-03-06T01:01:04.790Z,81.6
2018-03-06T01:02:06.177Z,82.0
2018-03-06T01:03:07.560Z,82.4
2018-03-06T01:04:08.944Z,82.1
2018-03-06T01:05:10.327Z,82.6
2018-03-06T01:06:11.745Z,82.5
2018-03-06T01:07:13.096Z,82.3
2018-03-06T01:08:14.481Z,82.5
2018-03-06T01:09:15.866Z,82.4
2018-03-06T01:10:17.244Z,82.4
2018-03-06T01:11:18.627Z,82.4
2018-03-06T01:12:20.005Z,82.3
2018-03-06T01:13:21.396Z,81.9
2018-03-06T01:14:22.789Z,82.0
2018-03-06T01:15:24.171Z,82.3
2018-03-06T01:16:25.555Z,82.9
2018-03-06T01:17:26.938Z,82.7
2018-03-06T01:18:28.325Z,83.1
2018-03-06T01:19:29.711Z,83.0
2018-03-06T01:20:31.098Z,83.1
2018-03-06T01:21:32.481Z,83.3
2018-03-06T01:22:33.867Z,83.3
2018-03-06T01:23:35.251Z,83.2
2018-03-06T01:24:36.636Z,82.7
2018-03-06T01:25:38.026Z,82.7
2018-03-06T01:26:39.400Z,82.9
2018-03-06T01:27:40.782Z,82.9
2018-03-06T01:28:42.172Z,82.7
2018-03-06T01:29:43.557Z,82.9
2018-03-06T01:30:44.942Z,83.5
2018-03-06T01:31:46.336Z,83.8
2018-03-06T01:32:47.797Z,83.4
2018-03-06T01:33:49.208Z,84.0
2018-03-06T01:34:50.592Z,83.3
2018-03-06T01:35:51.979Z,83.5
2018-03-06T01:36:53.364Z,83.6
2018-03-06T01:37:54.750Z,83.1
2018-03-06T01:38:56.137Z,83.6
2018-03-06T01:39:57.518Z,83.4
2018-03-06T01:40:58.900Z,83.1
2018-03-06T01:42:00.284Z,83.4
2018-03-06T01:43:01.666Z,83.6
2018-03-06T01:44:03.051Z,83.6
2018-03-06T01:45:04.435Z,83.6
2018-03-06T01:46:05.819Z,83.5
2018-03-06T01:47:07.200Z,83.4
2018-03-06T01:48:08.584Z,83.5
2018-03-06T01:49:09.971Z,83.2
2018-03-06T01:50:11.383Z,83.6
2018-03-06T01:51:12.766Z,83.8
2018-03-06T01:52:14.154Z,83.7
2018-03-06T01:53:15.534Z,83.7
2018-03-06T01:54:16.920Z,83.9
2018-03-06T01:55:18.306Z,84.2
2018-03-06T01:56:19.690Z,84.2
2018-03-06T01:57:21.111Z,84.7
2018-03-06T01:58:22.492Z,84.5
2018-03-06T01:59:23.878Z,84.9
2018-03-06T02:00:25.268Z,85.0
2018-03-06T02:01:26.652Z,84.9
2018-03-06T02:02:28.035Z,85.4
2018-03-06T02:03:29.420Z,85.3
2018-03-06T02:04:30.808Z,85.5
2018-03-06T02:05:32.237Z,85.8
2018-03-06T02:06:33.576Z,86.1
2018-03-06T02:07:34.960Z,85.7
2018-03-06T02:08:36.343Z,85.4
2018-03-06T02:09:37.723Z,86.3
2018-03-06T02:10:39.104Z,85.4
2018-03-06T02:11:40.518Z,86.2
2018-03-06T02:12:41.902Z,85.7
2018-03-06T02:13:43.288Z,86.1
2018-03-06T02:14:44.676Z,85.3
2018-03-06T02:15:46.055Z,85.3
2018-03-06T02:16:47.436Z,85.4
2018-03-06T02:17:48.816Z,85.8
2018-03-06T02:18:50.200Z,85.8
2018-03-06T02:19:51.587Z,85.7
2018-03-06T02:20:52.969Z,86.2
2018-03-06T02:21:54.406Z,86.3
2018-03-06T02:22:55.831Z,85.9
2018-03-06T02:23:57.224Z,86.3
2018-03-06T02:24:58.605Z,86.1
2018-03-06T02:25:59.995Z,86.0
2018-03-06T02:27:01.378Z,86.1
2018-03-06T02:28:02.763Z,86.1
2018-03-06T02:29:04.147Z,86.1
2018-03-06T02:30:05.529Z,86.3
2018-03-06T02:31:06.913Z,86.3
2018-03-06T02:32:08.294Z,86.3
2018-03-06T02:33:09.682Z,86.1
2018-03-06T02:34:11.066Z,86.0
2018-03-06T02:35:12.453Z,86.0
2018-03-06T02:36:13.833Z,86.4
2018-03-06T02:37:15.220Z,86.4
2018-03-06T02:38:16.601Z,86.0
2018-03-06T02:39:17.983Z,86.3
2018-03-06T02:40:19.365Z,86.5
2018-03-06T02:41:20.746Z,85.9
2018-03-06T02:42:22.133Z,86.1
2018-03-06T02:43:23.522Z,86.1
2018-03-06T02:44:24.904Z,86.0
2018-03-06T02:45:26.284Z,86.0
2018-03-06T02:46:27.673Z,86.1
2018-03-06T02:47:29.058Z,86.2
2018-03-06T02:48:30.461Z,86.1
2018-03-06T02:49:31.835Z,86.0
2018-03-06T02:50:33.218Z,86.2
2018-03-06T02:51:34.607Z,86.2
2018-03-06T02:52:35.985Z,86.1
2018-03-06T02:53:37.369Z,86.1
2018-03-06T02:54:38.754Z,86.3
2018-03-06T02:55:40.139Z,86.2
2018-03-06T02:56:41.527Z,86.0
2018-03-06T02:57:42.909Z,86.1
2018-03-06T02:58:44.292Z,86.1
2018-03-06T02:59:45.677Z,86.2
2018-03-06T03:00:47.062Z,86.2
2018-03-06T03:01:48.479Z,86.2
2018-03-06T03:02:49.829Z,86.1
2018-03-06T03:03:51.214Z,86.3
2018-03-06T03:04:52.600Z,86.2
2018-03-06T03:05:53.979Z,86.0
2018-03-06T03:06:55.360Z,86.1
2018-03-06T03:07:56.744Z,86.1
2018-03-06T03:08:58.143Z,85.7
2018-03-06T03:09:59.528Z,85.5
2018-03-06T03:11:00.915Z,85.5
2018-03-06T03:12:02.408Z,85.4
2018-03-06T03:13:03.791Z,86.2
2018-03-06T03:14:05.172Z,85.3
2018-03-06T03:15:06.558Z,86.2
2018-03-06T03:16:07.943Z,85.7
2018-03-06T03:17:09.325Z,85.6
2018-03-06T03:18:10.714Z,85.7
2018-03-06T03:19:12.094Z,86.4
2018-03-06T03:20:13.473Z,86.1
2018-03-06T03:21:14.853Z,86.1
2018-03-06T03:22:16.239Z,86.2
2018-03-06T03:23:17.623Z,85.8
2018-03-06T03:24:19.007Z,86.1
2018-03-06T03:25:20.392Z,85.7
2018-03-06T03:26:21.774Z,85.8
2018-03-06T03:27:23.152Z,85.7
2018-03-06T03:28:24.539Z,85.8
2018-03-06T03:29:25.923Z,85.4
2018-03-06T03:30:27.306Z,85.6
2018-03-06T03:31:28.692Z,85.4
2018-03-06T03:32:30.077Z,85.4
2018-03-06T03:33:31.462Z,85.4
2018-03-06T03:34:32.840Z,85.5
2018-03-06T03:35:34.227Z,86.3
2018-03-06T03:36:35.609Z,85.7
2018-03-06T03:37:36.993Z,85.6
2018-03-06T03:38:38.406Z,86.2
2018-03-06T03:39:39.790Z,86.0
2018-03-06T03:40:41.172Z,85.2
2018-03-06T03:41:42.558Z,85.8
2018-03-06T03:42:43.939Z,85.7
2018-03-06T03:43:45.319Z,86.1
2018-03-06T03:44:46.707Z,86.3
2018-03-06T03:45:48.090Z,85.9
2018-03-06T03:46:49.476Z,86.5
2018-03-06T03:47:50.859Z,86.2
2018-03-06T03:48:52.242Z,86.1
2018-03-06T03:49:53.622Z,86.5
2018-03-06T03:50:55.015Z,86.4
2018-03-06T03:51:56.394Z,86.0
2018-03-06T03:52:57.780Z,86.5
2018-03-06T03:53:59.180Z,86.2
2018-03-06T03:55:00.561Z,85.9
2018-03-06T03:56:01.946Z,86.2
2018-03-06T03:57:03.347Z,85.9
2018-03-06T03:58:04.727Z,86.0
2018-03-06T03:59:06.111Z,86.2
2018-03-06T04:00:07.497Z,86.1
2018-03-06T04:01:08.970Z,86.3
2018-03-06T04:02:10.367Z,86.0
2018-03-06T04:03:11.756Z,86.1
2018-03-06T04:04:13.136Z,86.2
2018-03-06T04:05:14.519Z,86.2
2018-03-06T04:06:15.903Z,86.0
2018-03-06T04:07:17.287Z,86.0
2018-03-06T04:08:18.671Z,86.0
2018-03-06T04:09:20.051Z,86.1
2018-03-06T04:10:21.436Z,86.2
2018-03-06T04:11:22.823Z,86.2
2018-03-06T04:12:24.203Z,86.3
2018-03-06T04:13:25.585Z,86.5
2018-03-06T04:14:26.967Z,86.5
2018-03-06T04:15:28.360Z,86.8
2018-03-06T04:16:29.740Z,86.7
2018-03-06T04:17:31.118Z,86.5
2018-03-06T04:18:32.503Z,86.8
2018-03-06T04:19:33.886Z,86.7
2018-03-06T04:20:35.274Z,86.8
2018-03-06T04:21:36.656Z,86.9
2018-03-06T04:22:38.042Z,86.6
2018-03-06T04:23:39.424Z,86.9
2018-03-06T04:24:40.806Z,86.8
2018-03-06T04:25:42.190Z,86.4
2018-03-06T04:26:43.572Z,86.8
2018-03-06T04:27:44.959Z,86.9
2018-03-06T04:28:46.352Z,86.7
2018-03-06T04:29:47.734Z,86.8
2018-03-06T04:30:49.117Z,86.7
2018-03-06T04:31:50.507Z,86.7
2018-03-06T04:32:51.884Z,86.7
2018-03-06T04:33:53.273Z,86.6
2018-03-06T04:34:54.657Z,86.9
2018-03-06T04:35:56.039Z,86.7
2018-03-06T04:36:57.422Z,86.6
2018-03-06T04:37:58.805Z,86.6
2018-03-06T04:39:00.186Z,86.7
2018-03-06T04:40:01.573Z,86.5
2018-03-06T04:41:02.954Z,86.7
2018-03-06T04:42:04.340Z,86.8
2018-03-06T04:43:05.728Z,86.4
2018-03-06T04:44:07.110Z,86.9
2018-03-06T04:45:08.508Z,86.5
2018-03-06T04:46:09.894Z,86.4
2018-03-06T04:47:11.275Z,86.8
2018-03-06T04:48:12.661Z,86.6
2018-03-06T04:49:14.041Z,86.9
2018-03-06T04:50:15.424Z,86.8
2018-03-06T04:51:16.846Z,86.8
2018-03-06T04:52:18.287Z,87.0
2018-03-06T04:53:19.670Z,86.6
2018-03-06T04:54:21.054Z,86.7
2018-03-06T04:55:22.440Z,86.7
2018-03-06T04:56:23.822Z,86.7
2018-03-06T04:57:25.204Z,86.7
2018-03-06T04:58:26.589Z,86.5
2018-03-06T04:59:27.974Z,86.8
2018-03-06T05:00:29.350Z,86.8
2018-03-06T05:01:30.738Z,86.7
2018-03-06T05:02:32.119Z,86.9
2018-03-06T05:03:33.504Z,86.5
2018-03-06T05:04:34.887Z,86.8
2018-03-06T05:05:36.273Z,86.9
2018-03-06T05:06:37.656Z,86.8
2018-03-06T05:07:39.058Z,86.9
2018-03-06T05:08:40.443Z,86.4
2018-03-06T05:09:41.825Z,86.3
2018-03-06T05:10:43.210Z,86.7
2018-03-06T05:11:44.604Z,86.9
2018-03-06T05:12:45.986Z,86.8
2018-03-06T05:13:47.368Z,86.8
2018-03-06T05:14:48.787Z,86.8
2018-03-06T05:15:50.172Z,86.6
2018-03-06T05:16:51.554Z,86.7
2018-03-06T05:17:52.935Z,86.7
2018-03-06T05:18:54.322Z,86.6
2018-03-06T05:19:55.704Z,86.8
2018-03-06T05:20:57.107Z,86.6
2018-03-06T05:21:58.493Z,86.5
2018-03-06T05:22:59.877Z,87.2
2018-03-06T05:24:01.260Z,87.3
2018-03-06T05:25:02.642Z,87.5
2018-03-06T05:26:04.033Z,87.4
2018-03-06T05:27:05.425Z,87.7
2018-03-06T05:28:06.806Z,87.4
2018-03-06T05:29:08.192Z,87.5
2018-03-06T05:30:09.582Z,87.3
2018-03-06T05:31:11.902Z,87.4
2018-03-06T05:32:18.252Z,87.5
2018-03-06T05:33:20.229Z,87.5
2018-03-06T05:34:25.549Z,87.3
2018-03-06T05:35:31.731Z,87.1
2018-03-06T05:36:34.909Z,86.3
2018-03-06T05:37:40.557Z,86.5
2018-03-06T05:38:47.357Z,86.5
2018-03-06T05:39:53.415Z,86.5
2018-03-06T05:41:00.509Z,86.6
2018-03-06T05:42:04.672Z,86.9
2018-03-06T05:43:09.344Z,86.5
2018-03-06T05:44:25.109Z,86.6
2018-03-06T05:45:30.999Z,86.8
2018-03-06T05:46:32.575Z,86.7
2018-03-06T05:47:33.973Z,86.6
2018-03-06T05:48:35.354Z,86.7
2018-03-06T05:49:36.746Z,86.6
2018-03-06T05:50:38.143Z,86.6
2018-03-06T05:51:39.525Z,86.6
2018-03-06T05:52:40.912Z,87.0
2018-03-06T05:53:43.212Z,87.4
2018-03-06T05:54:49.047Z,87.6
2018-03-06T05:56:14.484Z,87.2
2018-03-06T05:57:27.194Z,87.2
2018-03-06T05:58:29.036Z,87.1
2018-03-06T05:59:30.971Z,87.1
2018-03-06T06:00:32.869Z,87.2
2018-03-06T06:01:34.955Z,87.2
2018-03-06T06:07:55.232Z,87.3
2018-03-06T06:08:57.196Z,87.3
2018-03-06T06:09:58.557Z,87.4
2018-03-06T06:10:59.940Z,87.3
2018-03-06T06:12:01.324Z,87.2
2018-03-06T06:13:02.712Z,87.2
2018-03-06T06:14:04.795Z,87.2
2018-03-06T06:15:06.911Z,87.2
2018-03-06T06:16:08.953Z,87.2
2018-03-06T06:17:10.700Z,87.1
2018-03-06T06:18:12.350Z,87.2
2018-03-06T06:19:13.766Z,87.5
2018-03-06T06:20:15.105Z,87.4
2018-03-06T06:21:17.149Z,87.2
2018-03-06T06:23:01.850Z,87.2
2018-03-06T06:24:05.272Z,87.2
2018-03-06T06:25:07.294Z,87.4
2018-03-06T06:26:09.406Z,87.2
2018-03-06T06:27:11.458Z,87.2
2018-03-06T06:28:12.818Z,87.2
2018-03-06T06:29:14.219Z,87.2
2018-03-06T06:30:15.599Z,87.3
2018-03-06T06:31:16.983Z,87.6
2018-03-06T06:32:18.367Z,87.2
2018-03-06T06:33:19.755Z,87.4
2018-03-06T06:34:21.136Z,87.2
2018-03-06T06:35:22.525Z,87.2
2018-03-06T06:36:23.911Z,87.5
2018-03-06T06:37:25.300Z,87.3
2018-03-06T06:38:26.688Z,86.3
2018-03-06T06:39:28.076Z,87.2
2018-03-06T06:40:29.457Z,87.2
2018-03-06T06:41:30.848Z,87.0
2018-03-06T06:42:32.244Z,87.5
2018-03-06T06:43:33.616Z,87.4
2018-03-06T06:44:35.011Z,87.4
2018-03-06T06:45:36.392Z,87.3
2018-03-06T06:46:37.780Z,87.4
2018-03-06T06:47:39.165Z,87.2
2018-03-06T06:48:40.547Z,87.5
2018-03-06T06:49:41.935Z,87.3
2018-03-06T06:50:43.323Z,87.5
2018-03-06T06:51:44.718Z,87.5
2018-03-06T06:52:46.100Z,87.4
2018-03-06T06:53:47.488Z,87.2
2018-03-06T06:54:48.874Z,87.2
2018-03-06T06:55:50.295Z,86.9
2018-03-06T06:56:51.722Z,87.0
2018-03-06T06:57:53.106Z,86.2
2018-03-06T06:58:54.515Z,86.5
2018-03-06T06:59:55.890Z,86.9
2018-03-06T07:00:57.278Z,86.6
2018-03-06T07:01:58.662Z,86.9
2018-03-06T07:03:00.049Z,86.8
2018-03-06T07:04:01.439Z,86.7
2018-03-06T07:05:02.826Z,86.8
2018-03-06T07:06:04.215Z,86.6
2018-03-06T07:07:05.597Z,86.3
2018-03-06T07:08:06.982Z,86.3
2018-03-06T07:09:08.369Z,86.3
2018-03-06T07:10:09.756Z,86.4
2018-03-06T07:11:11.146Z,86.1
2018-03-06T07:12:12.532Z,86.1
2018-03-06T07:13:13.932Z,86.0
2018-03-06T07:14:15.313Z,86.2
2018-03-06T07:15:16.693Z,86.3
2018-03-06T07:16:18.078Z,85.6
2018-03-06T07:17:19.472Z,85.8
2018-03-06T07:18:20.860Z,85.4
2018-03-06T07:19:22.246Z,85.6
2018-03-06T07:20:23.635Z,85.6
2018-03-06T07:21:25.017Z,86.3
2018-03-06T07:22:26.400Z,85.6
2018-03-06T07:23:27.789Z,85.5
2018-03-06T07:24:29.192Z,85.6
2018-03-06T07:25:30.568Z,85.6
2018-03-06T07:26:31.988Z,85.5
2018-03-06T07:27:33.362Z,84.9
2018-03-06T07:28:34.746Z,84.9
2018-03-06T07:29:36.138Z,85.0
2018-03-06T07:30:37.526Z,85.1
2018-03-06T07:31:38.919Z,85.5
2018-03-06T07:32:40.310Z,85.1
2018-03-06T07:33:41.697Z,84.8
2018-03-06T07:34:43.087Z,85.1
2018-03-06T07:35:44.473Z,84.5
2018-03-06T07:36:45.861Z,84.5
2018-03-06T07:37:47.250Z,84.8
2018-03-06T07:38:48.640Z,84.0
2018-03-06T07:39:50.029Z,84.1
2018-03-06T07:40:51.420Z,84.3
2018-03-06T07:41:52.806Z,84.3
2018-03-06T07:42:54.195Z,83.9
2018-03-06T07:43:55.582Z,83.8
2018-03-06T07:44:56.970Z,83.9
2018-03-06T07:45:58.485Z,83.4
2018-03-06T07:46:59.897Z,83.4
2018-03-06T07:48:01.285Z,83.8
2018-03-06T07:49:02.674Z,83.4
2018-03-06T07:50:04.058Z,83.6
2018-03-06T07:51:05.446Z,84.0
2018-03-06T07:52:06.837Z,84.0
2018-03-06T07:53:08.222Z,83.7
2018-03-06T07:54:09.634Z,83.2
2018-03-06T07:55:10.999Z,83.0
2018-03-06T07:56:12.389Z,83.3
2018-03-06T07:57:13.823Z,83.1
2018-03-06T07:58:15.160Z,83.3
2018-03-06T07:59:16.548Z,83.0
2018-03-06T08:00:17.936Z,83.4
2018-03-06T08:01:19.323Z,82.9
2018-03-06T08:02:20.713Z,82.9
2018-03-06T08:03:22.122Z,83.0
2018-03-06T08:04:23.518Z,82.4
2018-03-06T08:05:24.904Z,82.2
2018-03-06T08:06:26.290Z,82.2
2018-03-06T08:07:27.684Z,82.3
2018-03-06T08:08:29.076Z,81.8
2018-03-06T08:09:30.467Z,81.5
2018-03-06T08:10:31.855Z,81.9
2018-03-06T08:11:33.247Z,81.3
2018-03-06T08:12:34.634Z,81.3
2018-03-06T08:13:36.023Z,81.3
2018-03-06T08:14:37.411Z,80.9
2018-03-06T08:15:38.822Z,80.5
2018-03-06T08:16:40.211Z,80.4
2018-03-06T08:17:41.603Z,80.1
2018-03-06T08:18:42.990Z,79.8
2018-03-06T08:19:44.379Z,79.8
2018-03-06T08:20:45.769Z,79.3
2018-03-06T08:21:47.156Z,79.4
2018-03-06T08:22:48.548Z,79.5
2018-03-06T08:23:49.938Z,79.6
2018-03-06T08:24:51.334Z,79.1
2018-03-06T08:25:52.721Z,78.4
2018-03-06T08:26:54.110Z,78.9
2018-03-06T08:27:55.501Z,78.8
2018-03-06T08:28:56.897Z,79.1
2018-03-06T08:29:58.286Z,78.2
2018-03-06T08:30:59.677Z,78.6
2018-03-06T08:32:01.067Z,78.1
2018-03-06T08:33:02.461Z,78.2
2018-03-06T08:34:03.847Z,77.5
2018-03-06T08:35:05.275Z,77.9
2018-03-06T08:36:06.666Z,77.7
2018-03-06T08:37:08.063Z,77.3
2018-03-06T08:38:09.453Z,77.4
2018-03-06T08:39:10.847Z,77.4
2018-03-06T08:40:12.239Z,77.2
2018-03-06T08:41:13.630Z,76.7
2018-03-06T08:42:15.056Z,76.2
2018-03-06T08:43:16.405Z,76.1
2018-03-06T08:44:17.798Z,76.7
2018-03-06T08:45:19.210Z,76.6
2018-03-06T08:46:20.606Z,76.2
2018-03-06T08:47:21.994Z,76.3
2018-03-06T08:48:23.380Z,76.0
2018-03-06T08:49:24.771Z,76.0
2018-03-06T08:50:26.161Z,76.0
2018-03-06T08:51:27.555Z,75.6
2018-03-06T08:52:28.947Z,75.7
2018-03-06T08:53:30.337Z,75.9
2018-03-06T08:54:31.741Z,75.6
2018-03-06T08:55:33.129Z,75.7
2018-03-06T08:56:34.523Z,75.7
2018-03-06T08:57:35.913Z,75.5
2018-03-06T08:58:37.307Z,75.9
2018-03-06T08:59:38.707Z,74.8
2018-03-06T09:00:40.098Z,74.8
2018-03-06T09:01:41.487Z,74.8
2018-03-06T09:02:42.877Z,74.8
2018-03-06T09:03:44.271Z,74.7
2018-03-06T09:04:45.660Z,74.5
2018-03-06T09:05:47.053Z,74.1
2018-03-06T09:06:48.446Z,73.5
2018-03-06T09:07:49.841Z,73.4
2018-03-06T09:08:51.234Z,72.8
2018-03-06T09:09:52.626Z,72.7
2018-03-06T09:10:54.020Z,73.0
2018-03-06T09:11:55.410Z,72.6
2018-03-06T09:12:56.810Z,72.8
2018-03-06T09:13:58.204Z,72.6
2018-03-06T09:14:59.596Z,71.7
2018-03-06T09:16:00.990Z,72.1
2018-03-06T09:17:02.381Z,72.3
2018-03-06T09:18:03.782Z,71.3
2018-03-06T09:19:05.174Z,71.3
2018-03-06T09:20:06.564Z,71.3
2018-03-06T09:21:07.962Z,70.6
2018-03-06T09:22:09.372Z,70.1
2018-03-06T09:23:10.842Z,69.7
2018-03-06T09:24:12.251Z,70.1
2018-03-06T09:25:13.646Z,70.1
2018-03-06T09:26:15.037Z,70.3
2018-03-06T09:27:16.430Z,70.2
2018-03-06T09:28:17.827Z,69.9
2018-03-06T09:29:19.227Z,69.5
2018-03-06T09:30:20.620Z,69.1
2018-03-06T09:31:22.012Z,68.9
2018-03-06T09:32:23.405Z,68.5
2018-03-06T09:33:24.798Z,68.7
2018-03-06T09:34:26.191Z,68.3
2018-03-06T09:35:27.584Z,67.6
2018-03-06T09:36:29.003Z,66.5
2018-03-06T09:37:30.393Z,66.3
2018-03-06T09:38:31.788Z,66.0
2018-03-06T09:39:33.180Z,65.9
2018-03-06T09:40:34.582Z,64.7
2018-03-06T09:41:35.976Z,63.7
2018-03-06T09:42:37.382Z,62.3
2018-03-06T09:43:38.780Z,60.0
2018-03-06T09:44:40.174Z,58.6
2018-03-06T09:45:41.572Z,56.9
2018-03-06T09:46:42.971Z,56.7
2018-03-06T09:47:44.368Z,55.6
2018-03-06T09:48:45.766Z,55.4
2018-03-06T09:49:47.168Z,54.6
2018-03-06T09:50:48.566Z,54.5
2018-03-06T09:51:49.965Z,54.2
2018-03-06T09:52:51.361Z,53.5
2018-03-06T09:53:52.760Z,54.3
2018-03-06T09:54:54.158Z,53.1
2018-03-06T09:55:55.568Z,53.2
2018-03-06T09:56:56.965Z,53.8
2018-03-06T09:57:58.370Z,53.5
2018-03-06T09:58:59.767Z,53.9
2018-03-06T10:00:01.164Z,53.1
2018-03-06T10:01:02.565Z,52.1
2018-03-06T10:02:03.964Z,53.2
2018-03-06T10:03:05.419Z,53.6
2018-03-06T10:04:06.763Z,53.8
2018-03-06T10:05:08.164Z,53.6
2018-03-06T10:06:09.561Z,53.4
2018-03-06T10:07:10.959Z,53.5
2018-03-06T10:08:12.360Z,53.8
2018-03-06T10:09:13.757Z,53.8
2018-03-06T10:10:15.162Z,54.2
2018-03-06T10:11:16.604Z,54.1
2018-03-06T10:12:18.027Z,52.8
2018-03-06T10:13:19.427Z,52.8
2018-03-06T10:14:20.825Z,52.2
2018-03-06T10:15:22.228Z,50.6
2018-03-06T10:16:23.630Z,50.5
2018-03-06T10:17:25.033Z,50.6
2018-03-06T10:18:26.430Z,51.0
2018-03-06T10:19:27.831Z,50.6
2018-03-06T10:20:29.233Z,50.8
2018-03-06T10:21:30.634Z,49.7
2018-03-06T10:22:32.036Z,48.9
2018-03-06T10:23:33.435Z,48.1
2018-03-06T10:24:34.835Z,48.2
2018-03-06T10:25:36.235Z,48.8
2018-03-06T10:26:37.642Z,48.4
2018-03-06T10:27:39.039Z,48.6
2018-03-06T10:28:40.437Z,48.3
2018-03-06T10:29:41.840Z,49.0
2018-03-06T10:30:43.242Z,48.8
2018-03-06T10:31:44.646Z,48.5
2018-03-06T10:32:46.046Z,46.8
2018-03-06T10:33:47.450Z,46.9
2018-03-06T10:34:48.855Z,46.3
2018-03-06T10:35:50.257Z,44.9
2018-03-06T10:36:51.656Z,44.3
2018-03-06T10:37:53.061Z,44.5
2018-03-06T10:38:54.463Z,44.3
2018-03-06T10:39:55.866Z,44.8
2018-03-06T10:40:57.271Z,45.1
2018-03-06T10:41:58.670Z,44.8
2018-03-06T10:43:00.074Z,43.9
2018-03-06T10:44:01.477Z,44.0
2018-03-06T10:45:02.889Z,43.9
2018-03-06T10:46:04.289Z,43.9
2018-03-06T10:47:05.730Z,43.0
2018-03-06T10:48:07.102Z,42.2
2018-03-06T10:49:08.501Z,41.5
2018-03-06T10:50:09.904Z,42.8
2018-03-06T10:51:11.305Z,43.2
2018-03-06T10:52:12.706Z,43.4
2018-03-06T10:53:14.136Z,43.9
2018-03-06T10:54:15.515Z,43.5
2018-03-06T10:55:16.919Z,42.4
2018-03-06T10:56:18.323Z,42.1
2018-03-06T10:57:19.727Z,41.9
2018-03-06T10:58:21.127Z,40.6
2018-03-06T10:59:22.637Z,39.9
2018-03-06T11:00:24.063Z,40.4
2018-03-06T11:01:25.466Z,39.5
2018-03-06T11:02:26.882Z,38.4
2018-03-06T11:03:28.287Z,38.2
2018-03-06T11:04:29.691Z,37.8
2018-03-06T11:05:31.092Z,38.7
2018-03-06T11:06:32.495Z,39.4
2018-03-06T11:07:33.905Z,39.7
2018-03-06T11:08:35.309Z,40.1
2018-03-06T11:09:36.712Z,41.3
2018-03-06T11:10:38.120Z,42.2
2018-03-06T11:11:39.514Z,43.7
2018-03-06T11:12:40.914Z,43.9
2018-03-06T11:13:42.319Z,45.8
2018-03-06T11:14:43.732Z,46.1
2018-03-06T11:15:45.132Z,46.7
2018-03-06T11:16:46.591Z,47.4
2018-03-06T11:17:47.994Z,47.8
2018-03-06T11:18:49.425Z,48.5
2018-03-06T11:19:50.827Z,49.1
2018-03-06T11:20:52.224Z,48.7
2018-03-06T11:21:53.635Z,49.7
2018-03-06T11:22:55.034Z,50.6
2018-03-06T11:23:56.434Z,51.0
2018-03-06T11:24:57.837Z,51.9
2018-03-06T11:25:59.242Z,53.6
2018-03-06T11:27:00.639Z,54.0
2018-03-06T11:28:02.040Z,53.5
2018-03-06T11:29:03.443Z,54.7
2018-03-06T11:30:04.843Z,54.5
2018-03-06T11:31:06.293Z,55.2
2018-03-06T11:32:07.691Z,55.7
2018-03-06T11:33:09.088Z,55.7
2018-03-06T11:34:10.483Z,55.8
2018-03-06T11:35:11.882Z,57.0
2018-03-06T11:36:13.279Z,57.3
2018-03-06T11:37:14.678Z,57.8
2018-03-06T11:38:16.073Z,58.7
2018-03-06T11:39:17.471Z,58.9
2018-03-06T11:40:18.869Z,60.0
2018-03-06T11:41:20.263Z,60.9
2018-03-06T11:42:21.664Z,61.6
2018-03-06T11:43:23.062Z,61.9
2018-03-06T11:44:24.454Z,61.6
2018-03-06T11:45:25.869Z,61.8
2018-03-06T11:46:27.287Z,61.8
2018-03-06T11:47:28.706Z,61.8
2018-03-06T11:48:30.100Z,62.6
2018-03-06T11:49:31.503Z,62.1
2018-03-06T11:50:32.900Z,62.1
2018-03-06T11:51:34.299Z,62.2
2018-03-06T11:52:35.719Z,61.9
2018-03-06T11:53:37.101Z,62.5
2018-03-06T11:54:38.497Z,62.5
2018-03-06T11:55:39.894Z,62.9
2018-03-06T11:56:41.290Z,62.7
2018-03-06T11:57:42.689Z,62.6
2018-03-06T11:58:44.087Z,62.2
2018-03-06T11:59:45.488Z,62.6
2018-03-06T12:00:46.884Z,63.0
2018-03-06T12:01:48.276Z,62.9
2018-03-06T12:02:49.673Z,63.1
2018-03-06T12:03:51.081Z,63.3
2018-03-06T12:04:52.477Z,63.9
2018-03-06T12:05:53.874Z,64.0
2018-03-06T12:06:55.277Z,63.8
2018-03-06T12:07:56.671Z,63.9
2018-03-06T12:08:58.066Z,64.0
2018-03-06T12:09:59.463Z,63.3
2018-03-06T12:11:00.880Z,63.3
2018-03-06T12:12:02.261Z,63.7
2018-03-06T12:13:03.654Z,62.9
2018-03-06T12:14:05.115Z,63.0
2018-03-06T12:15:06.513Z,62.6
2018-03-06T12:16:07.912Z,62.5
2018-03-06T12:17:09.307Z,62.8
2018-03-06T12:18:10.705Z,63.8
2018-03-06T12:19:12.106Z,64.2
2018-03-06T12:20:13.509Z,64.9
2018-03-06T12:21:14.909Z,65.2
2018-03-06T12:22:16.306Z,64.7
2018-03-06T12:23:17.699Z,64.6
2018-03-06T12:24:19.094Z,65.9
2018-03-06T12:25:20.489Z,65.4
2018-03-06T12:26:21.881Z,64.8
2018-03-06T12:27:23.281Z,63.8
2018-03-06T12:28:24.687Z,64.1
2018-03-06T12:29:26.080Z,64.1
2018-03-06T12:30:27.468Z,64.1
2018-03-06T12:31:28.888Z,63.9
2018-03-06T12:32:30.289Z,63.9
2018-03-06T12:33:31.784Z,62.7
2018-03-06T12:34:33.245Z,63.0
2018-03-06T12:35:34.663Z,63.1
2018-03-06T12:36:36.055Z,62.7
2018-03-06T12:37:37.452Z,62.7
2018-03-06T12:38:38.848Z,62.3
2018-03-06T12:39:40.274Z,62.2
2018-03-06T12:40:41.671Z,62.3
2018-03-06T12:41:43.067Z,61.1
2018-03-06T12:42:44.460Z,62.0
2018-03-06T12:43:45.858Z,62.2
2018-03-06T12:44:47.262Z,61.4
2018-03-06T12:45:48.670Z,61.9
2018-03-06T12:46:50.061Z,61.2
2018-03-06T12:47:51.463Z,62.1
2018-03-06T12:48:52.861Z,61.9
2018-03-06T12:49:54.258Z,61.4
2018-03-06T12:50:55.654Z,60.8
2018-03-06T12:51:57.048Z,60.6
2018-03-06T12:52:58.458Z,60.0
2018-03-06T12:53:59.849Z,59.9
2018-03-06T12:55:01.285Z,60.4
2018-03-06T12:56:02.647Z,60.0
2018-03-06T12:57:04.043Z,59.6
2018-03-06T12:58:05.437Z,60.2
2018-03-06T12:59:06.834Z,60.0
2018-03-06T13:00:08.233Z,60.4
2018-03-06T13:01:09.630Z,61.2
2018-03-06T13:02:11.030Z,61.1
2018-03-06T13:03:12.468Z,60.4
2018-03-06T13:04:13.866Z,60.3
2018-03-06T13:05:15.263Z,60.9
2018-03-06T13:06:16.662Z,60.0
2018-03-06T13:07:18.061Z,59.6
2018-03-06T13:08:19.459Z,60.7
2018-03-06T13:09:20.862Z,60.5
2018-03-06T13:10:22.256Z,60.3
2018-03-06T13:11:23.672Z,60.9
2018-03-06T13:12:25.068Z,62.6
2018-03-06T13:13:26.465Z,61.6
2018-03-06T13:14:27.898Z,61.3
2018-03-06T13:15:29.290Z,61.6
2018-03-06T13:16:30.686Z,60.7
2018-03-06T13:17:32.083Z,60.9
2018-03-06T13:18:33.494Z,60.6
2018-03-06T13:19:34.893Z,60.8
2018-03-06T13:20:36.290Z,60.6
2018-03-06T13:21:37.732Z,60.8
2018-03-06T13:22:39.166Z,60.7
2018-03-06T13:23:40.561Z,61.2
2018-03-06T13:24:41.962Z,61.5
2018-03-06T13:25:43.362Z,61.0
2018-03-06T13:26:44.756Z,60.4
2018-03-06T13:27:46.149Z,61.3
2018-03-06T13:28:47.546Z,60.8
2018-03-06T13:29:48.942Z,61.4
2018-03-06T13:30:50.366Z,62.3
2018-03-06T13:31:51.764Z,62.1
2018-03-06T13:32:53.163Z,61.9
2018-03-06T13:33:54.562Z,61.4
2018-03-06T13:34:55.959Z,61.6
2018-03-06T13:35:57.361Z,61.9
2018-03-06T13:36:58.749Z,62.3
2018-03-06T13:38:00.151Z,62.8
2018-03-06T13:39:01.544Z,62.6
2018-03-06T13:40:02.943Z,63.2
2018-03-06T13:41:04.337Z,63.3
2018-03-06T13:42:05.734Z,62.7
2018-03-06T13:43:07.139Z,63.3
2018-03-06T13:44:08.539Z,62.8
2018-03-06T13:45:09.936Z,62.8